• Join FlightAware (Why Join?)
  • Login
  • US Flag 
05:46PM EDT


 

Airport Tracker/Info


-or-


 

Live Flight TrackerFlight Track Log ✈ CES5511 ✈ 01-Nov-2013 ✈ ZSPD / PVG - ZSQD / TAO

Flight Track Log - Related Links

Times and Time Zones

All times are in EDT time to prevent confusion due to time zone crossing. See the CES5511 flight status page for this flight to view local times or setup timezone preferences in your user account.

Time Position Orientation Groundspeed Altitude Reporting Facility
EDT Latitude Longitude Course Direction KTS MPH feet Rate Location/Type
11:44PM 34.8078 120.7961 347° North  Level Estimated
11:45PM 34.8891 120.7730 347° North  Level Estimated
11:46PM 34.9705 120.7499 347° North  Level Estimated
11:47PM 35.0518 120.7267 347° North  Level Estimated
11:48PM 35.1332 120.7034 347° North  Level Estimated
11:49PM 35.2145 120.6801 347° North  Level Estimated
11:50PM 35.2958 120.6568 347° North  Level Estimated
11:51PM 35.3772 120.6334 347° North  Level Estimated
11:52PM 35.4585 120.6099 347° North  Level Estimated
11:53PM 35.5398 120.5864 347° North  Level Estimated
11:54PM 35.6211 120.5629 347° North  Level Estimated
11:55PM 35.7024 120.5393 347° North  Level Estimated
11:56PM 35.7837 120.5157 347° North  Level Estimated
11:57PM 35.8650 120.4920 347° North  Level Estimated
11:58PM 35.9463 120.4683 347° North  Level Estimated
11:59PM 36.0467 120.4389 347° North  Level Estimated
12:00AM 36.1471 120.4094 347° North  Level Estimated
12:01AM 36.2475 120.3799 347° North  Level Estimated
12:02AM 36.2661 120.3744 347° North  Level Estimated
12:03AM 36.2661 120.3744 238° Southwest  Level Estimated
12:04AM 36.2661 120.3744 238° Southwest  Level Estimated
12:05AM 36.2661 120.3744 238° Southwest  Level Estimated
12:06AM 36.2661 120.3744 238° Southwest  Level Estimated